createdAt,value
2022-09-20T00:01:16.793Z,3.33
2022-09-20T00:04:18.456Z,2.97
2022-09-20T00:07:20.084Z,3.33
2022-09-20T00:10:24.418Z,3.50
2022-09-20T00:13:25.996Z,3.80
2022-09-20T00:16:30.486Z,3.30
2022-09-20T00:19:32.117Z,3.63
2022-09-20T00:22:33.723Z,3.53
2022-09-20T00:25:35.340Z,4.43
2022-09-20T00:28:37.038Z,3.23
2022-09-20T00:31:40.236Z,3.43
2022-09-20T00:35:00.431Z,3.50
2022-09-20T00:38:02.083Z,3.70
2022-09-20T00:41:03.839Z,3.43
2022-09-20T00:44:43.052Z,3.57
2022-09-20T00:48:09.380Z,3.47
2022-09-20T00:51:17.830Z,3.70
2022-09-20T00:54:22.315Z,4.17
2022-09-20T00:57:24.307Z,3.60
2022-09-20T01:00:29.547Z,3.90
2022-09-20T01:03:34.553Z,4.10
2022-09-20T01:06:36.485Z,4.33
2022-09-20T01:09:38.072Z,3.70
2022-09-20T01:12:40.680Z,3.80
2022-09-20T01:15:44.279Z,3.90
2022-09-20T01:18:47.293Z,3.57
2022-09-20T01:21:48.939Z,3.50
2022-09-20T01:25:25.630Z,3.87
2022-09-20T01:28:28.939Z,3.80
2022-09-20T01:31:40.689Z,3.63
2022-09-20T01:34:52.934Z,3.87
2022-09-20T01:38:03.887Z,3.90
2022-09-20T01:41:22.755Z,4.17
2022-09-20T01:44:46.080Z,4.00
2022-09-20T01:48:11.976Z,4.30
2022-09-20T01:51:31.551Z,3.60
2022-09-20T01:54:38.884Z,3.77
2022-09-20T01:58:17.557Z,3.73
2022-09-20T02:01:19.203Z,3.50
2022-09-20T02:04:36.827Z,3.20
2022-09-20T02:08:06.065Z,4.00
2022-09-20T02:11:13.943Z,3.37
2022-09-20T02:14:55.724Z,3.20
2022-09-20T02:18:21.821Z,3.07
2022-09-20T02:21:23.942Z,3.20
2022-09-20T02:24:48.148Z,3.77
2022-09-20T02:28:44.564Z,3.30
2022-09-20T02:32:17.132Z,3.40
2022-09-20T02:35:49.771Z,3.07
2022-09-20T02:39:06.012Z,3.43
2022-09-20T02:42:07.569Z,3.87
2022-09-20T02:45:15.400Z,4.53
2022-09-20T02:48:24.262Z,4.07
2022-09-20T02:51:35.902Z,4.10
2022-09-20T02:55:09.177Z,4.07
2022-09-20T02:58:16.628Z,3.80
2022-09-20T03:01:46.315Z,3.80
2022-09-20T03:05:18.522Z,4.43
2022-09-20T03:08:43.882Z,4.00
2022-09-20T03:12:07.924Z,4.60
2022-09-20T03:15:28.749Z,4.23
2022-09-20T03:19:22.362Z,3.90
2022-09-20T03:23:07.670Z,4.23
2022-09-20T03:26:32.248Z,5.00
2022-09-20T03:29:43.443Z,4.50
2022-09-20T03:32:57.185Z,4.30
2022-09-20T03:36:27.105Z,5.20
2022-09-20T03:39:55.061Z,4.30
2022-09-20T03:43:11.186Z,4.30
2022-09-20T03:46:22.748Z,4.70
2022-09-20T03:49:43.289Z,4.57
2022-09-20T03:53:04.017Z,4.23
2022-09-20T03:56:24.351Z,4.80
2022-09-20T04:00:16.152Z,4.37
2022-09-20T04:03:29.148Z,4.47
2022-09-20T04:06:40.056Z,4.83
2022-09-20T04:10:16.455Z,4.57
2022-09-20T04:13:47.766Z,4.57
2022-09-20T04:17:05.692Z,5.07
2022-09-20T04:20:17.792Z,4.07
2022-09-20T04:23:38.279Z,4.30
2022-09-20T04:26:46.466Z,4.70
2022-09-20T04:29:57.923Z,4.83
2022-09-20T04:33:19.576Z,4.90
2022-09-20T04:36:30.129Z,5.20
2022-09-20T04:39:49.099Z,5.07
2022-09-20T04:43:18.522Z,5.13
2022-09-20T04:46:41.376Z,5.60
2022-09-20T04:50:16.952Z,5.10
2022-09-20T04:53:30.281Z,4.87
2022-09-20T04:56:56.102Z,5.30
2022-09-20T05:00:09.064Z,5.50
2022-09-20T05:03:11.067Z,5.10
2022-09-20T05:06:24.907Z,4.47
2022-09-20T05:09:55.167Z,5.30
2022-09-20T05:13:39.984Z,6.20
2022-09-20T05:17:10.249Z,5.53
2022-09-20T05:20:41.005Z,5.63
2022-09-20T05:24:18.609Z,6.87
2022-09-20T05:27:46.394Z,5.70
2022-09-20T05:30:57.189Z,6.10
2022-09-20T05:34:11.643Z,5.27
2022-09-20T05:37:38.059Z,6.13
2022-09-20T05:41:04.700Z,5.40
2022-09-20T05:44:28.187Z,5.47
2022-09-20T05:47:36.281Z,5.43
2022-09-20T05:50:49.288Z,5.30
2022-09-20T05:54:23.715Z,5.57
2022-09-20T05:57:39.004Z,5.50
2022-09-20T06:00:53.137Z,5.80
2022-09-20T06:04:24.264Z,6.90
2022-09-20T06:07:32.608Z,6.60
2022-09-20T06:10:37.150Z,5.47
2022-09-20T06:13:47.791Z,5.60
2022-09-20T06:17:02.432Z,5.80
2022-09-20T06:20:29.584Z,6.47
2022-09-20T06:23:31.951Z,5.40
2022-09-20T06:26:36.798Z,5.10
2022-09-20T06:29:43.874Z,6.00
2022-09-20T06:32:55.576Z,5.40
2022-09-20T06:36:28.412Z,6.20
2022-09-20T06:40:06.819Z,6.87
2022-09-20T06:43:09.072Z,5.40
2022-09-20T06:46:12.350Z,5.80
2022-09-20T06:49:14.012Z,6.03
2022-09-20T06:52:18.757Z,5.83
2022-09-20T06:55:29.375Z,5.97
2022-09-20T06:58:31.208Z,6.70
2022-09-20T07:01:32.828Z,5.70
2022-09-20T07:04:35.188Z,5.53
2022-09-20T07:07:36.784Z,5.30
2022-09-20T07:10:39.071Z,5.47
2022-09-20T07:13:40.951Z,6.00
2022-09-20T07:16:42.559Z,6.80
2022-09-20T07:19:44.153Z,5.30
2022-09-20T07:22:45.916Z,5.40
2022-09-20T07:25:47.580Z,5.03
2022-09-20T07:28:49.936Z,5.33
2022-09-20T07:31:51.781Z,5.93
2022-09-20T07:34:55.882Z,5.27
2022-09-20T07:37:58.373Z,5.23
2022-09-20T07:41:02.224Z,5.17
2022-09-20T07:44:21.411Z,5.83
2022-09-20T07:47:26.476Z,5.90
2022-09-20T07:50:28.102Z,6.03
2022-09-20T07:53:30.247Z,5.57
2022-09-20T07:56:46.048Z,5.33
2022-09-20T07:59:47.668Z,5.53
2022-09-20T08:02:58.996Z,5.20
2022-09-20T08:06:02.796Z,5.00
2022-09-20T08:09:10.204Z,5.50
2022-09-20T08:15:35.411Z,6.20
2022-09-20T08:18:37.845Z,6.63
2022-09-20T08:21:39.746Z,6.13
2022-09-20T08:24:42.399Z,5.90
2022-09-20T08:27:44.027Z,5.27
2022-09-20T08:30:45.624Z,5.47
2022-09-20T08:33:50.260Z,4.47
2022-09-20T08:36:56.377Z,4.80
2022-09-20T08:39:58.971Z,4.13
2022-09-20T08:43:05.504Z,4.23
2022-09-20T08:46:14.020Z,4.00
2022-09-20T08:49:28.059Z,3.83
2022-09-20T08:52:36.971Z,4.63
2022-09-20T08:55:43.536Z,4.37
2022-09-20T08:58:46.352Z,4.33
2022-09-20T09:01:49.716Z,4.53
2022-09-20T09:04:53.658Z,5.50
2022-09-20T09:07:55.300Z,5.00
2022-09-20T09:10:59.482Z,4.60
2022-09-20T09:14:04.670Z,4.67
2022-09-20T09:17:07.725Z,5.87
2022-09-20T09:20:22.458Z,4.53
2022-09-20T09:23:27.038Z,4.77
2022-09-20T09:26:37.787Z,5.53
2022-09-20T09:29:57.335Z,5.90
2022-09-20T09:33:28.387Z,5.23
2022-09-20T09:36:33.584Z,4.10
2022-09-20T09:39:38.534Z,4.37
2022-09-20T09:42:50.058Z,5.23
2022-09-20T09:45:53.744Z,4.53
2022-09-20T09:49:23.005Z,3.90
2022-09-20T09:52:27.853Z,3.63
2022-09-20T09:56:03.476Z,2.97
2022-09-20T09:59:23.556Z,3.20
2022-09-20T10:02:40.968Z,3.17
2022-09-20T10:06:18.558Z,3.67
2022-09-20T10:09:47.424Z,3.23
2022-09-20T10:13:27.589Z,2.97
2022-09-20T10:16:54.065Z,2.70
2022-09-20T10:20:28.105Z,2.90
2022-09-20T10:24:04.949Z,2.63
2022-09-20T10:27:16.964Z,3.23
2022-09-20T10:30:23.198Z,4.07
2022-09-20T10:33:42.414Z,3.57
2022-09-20T10:36:59.107Z,3.67
2022-09-20T10:40:26.369Z,5.03
2022-09-20T10:43:46.355Z,2.90
2022-09-20T10:47:16.943Z,3.33
2022-09-20T10:50:39.912Z,3.30
2022-09-20T10:53:56.645Z,2.97
2022-09-20T10:57:37.536Z,2.60
2022-09-20T11:00:48.540Z,2.47
2022-09-20T11:04:21.681Z,3.27
2022-09-20T11:07:42.814Z,3.33
2022-09-20T11:11:10.572Z,3.53
2022-09-20T11:14:21.326Z,2.53
2022-09-20T11:17:28.509Z,2.63
2022-09-20T11:20:36.041Z,6.57
2022-09-20T11:23:44.432Z,3.17
2022-09-20T11:26:59.151Z,1.93
2022-09-20T11:30:16.309Z,2.43
2022-09-20T11:33:28.916Z,1.93
2022-09-20T11:36:39.276Z,1.70
2022-09-20T11:40:09.877Z,1.50
2022-09-20T11:43:14.761Z,1.60
2022-09-20T11:46:25.604Z,1.40
2022-09-20T11:49:48.071Z,1.30
2022-09-20T11:53:16.692Z,1.13
2022-09-20T11:56:20.181Z,1.40
2022-09-20T11:59:39.612Z,2.57
2022-09-20T12:02:55.009Z,1.50
2022-09-20T12:06:00.006Z,1.10
2022-09-20T12:09:06.494Z,3.60
2022-09-20T12:12:47.059Z,1.67
2022-09-20T12:16:16.471Z,1.17
2022-09-20T12:19:21.171Z,1.37
2022-09-20T12:22:28.362Z,1.70
2022-09-20T12:25:39.435Z,1.00
2022-09-20T12:28:42.256Z,1.20
2022-09-20T12:31:55.722Z,1.10
2022-09-20T12:34:57.416Z,1.63
2022-09-20T12:38:25.508Z,1.60
2022-09-20T12:41:55.291Z,1.90
2022-09-20T12:45:15.581Z,1.77
2022-09-20T12:48:19.825Z,1.57
2022-09-20T12:51:51.687Z,1.70
2022-09-20T12:54:56.317Z,1.80
2022-09-20T12:58:14.796Z,2.23
2022-09-20T13:01:16.471Z,2.30
2022-09-20T13:04:55.983Z,1.63
2022-09-20T13:08:02.928Z,2.53
2022-09-20T13:11:07.319Z,11.03
2022-09-20T13:14:22.503Z,3.20
2022-09-20T13:17:30.974Z,3.63
2022-09-20T13:20:34.910Z,2.90
2022-09-20T13:23:48.458Z,3.33
2022-09-20T13:26:51.955Z,1.70
2022-09-20T13:29:53.972Z,1.90
2022-09-20T13:32:55.852Z,2.07
2022-09-20T13:35:58.631Z,1.90
2022-09-20T13:39:00.297Z,1.73
2022-09-20T13:42:07.613Z,1.40
2022-09-20T13:45:13.809Z,1.40
2022-09-20T13:48:16.853Z,1.57
2022-09-20T13:51:23.584Z,1.43
2022-09-20T13:54:31.054Z,1.53
2022-09-20T13:57:32.741Z,1.70
2022-09-20T14:00:45.225Z,2.50
2022-09-20T14:03:47.703Z,2.80
2022-09-20T14:06:51.908Z,3.40
2022-09-20T14:09:58.119Z,1.97
2022-09-20T14:13:02.301Z,3.33
2022-09-20T14:16:11.949Z,5.40
2022-09-20T14:19:20.221Z,2.97
2022-09-20T14:22:29.232Z,2.20
2022-09-20T14:25:31.081Z,2.50
2022-09-20T14:28:32.906Z,2.80
2022-09-20T14:31:35.020Z,2.53
2022-09-20T14:34:40.669Z,3.53
2022-09-20T14:37:48.969Z,2.90
2022-09-20T14:40:54.792Z,2.90
2022-09-20T14:43:58.891Z,2.80
2022-09-20T14:47:14.013Z,3.77
2022-09-20T14:50:55.829Z,3.53
2022-09-20T14:54:06.707Z,2.50
2022-09-20T14:57:13.707Z,2.90
2022-09-20T15:00:17.556Z,2.67
2022-09-20T15:03:28.871Z,2.30
2022-09-20T15:06:31.534Z,1.93
2022-09-20T15:09:33.231Z,1.53
2022-09-20T15:12:34.836Z,2.13
2022-09-20T15:15:36.495Z,2.40
2022-09-20T15:18:43.073Z,1.47
2022-09-20T15:21:45.740Z,1.80
2022-09-20T15:24:47.376Z,1.77
2022-09-20T15:27:50.977Z,1.90
2022-09-20T15:30:53.376Z,1.57
2022-09-20T15:33:55.040Z,2.13
2022-09-20T15:36:56.739Z,1.80
2022-09-20T15:40:09.057Z,1.60
2022-09-20T15:43:16.187Z,1.30
2022-09-20T15:46:28.832Z,1.60
2022-09-20T15:49:31.059Z,1.10
2022-09-20T15:52:42.504Z,1.10
2022-09-20T15:55:44.513Z,1.57
2022-09-20T15:58:59.319Z,1.40
2022-09-20T16:02:01.290Z,2.20
2022-09-20T16:05:12.275Z,1.30
2022-09-20T16:08:13.909Z,1.10
2022-09-20T16:11:22.659Z,1.53
2022-09-20T16:14:25.153Z,1.40
2022-09-20T16:17:47.004Z,2.70
2022-09-20T16:20:48.617Z,1.70
2022-09-20T16:23:52.707Z,1.90
2022-09-20T16:26:54.874Z,2.20
2022-09-20T16:29:57.637Z,2.50
2022-09-20T16:33:05.275Z,1.80
2022-09-20T16:36:06.932Z,1.90
2022-09-20T16:39:08.672Z,2.03
2022-09-20T16:42:12.285Z,1.70
2022-09-20T16:45:14.596Z,1.93
2022-09-20T16:48:23.360Z,1.80
2022-09-20T16:51:28.833Z,1.87
2022-09-20T16:54:32.109Z,1.53
2022-09-20T16:57:33.924Z,1.70
2022-09-20T17:00:35.555Z,1.90
2022-09-20T17:03:40.648Z,2.23
2022-09-20T17:06:43.377Z,2.20
2022-09-20T17:09:45.015Z,1.90
2022-09-20T17:12:47.721Z,3.77
2022-09-20T17:15:52.435Z,1.80
2022-09-20T17:18:58.860Z,1.87
2022-09-20T17:22:01.463Z,1.37
2022-09-20T17:25:03.144Z,1.20
2022-09-20T17:28:07.267Z,1.00
2022-09-20T17:31:12.221Z,2.90
2022-09-20T17:34:15.447Z,2.73
2022-09-20T17:37:17.124Z,2.47
2022-09-20T17:40:18.784Z,2.20
2022-09-20T17:43:21.072Z,2.43
2022-09-20T17:46:25.783Z,2.90
2022-09-20T17:49:31.308Z,2.53
2022-09-20T17:52:32.896Z,3.50
2022-09-20T17:55:35.236Z,3.90
2022-09-20T17:58:37.828Z,3.20
2022-09-20T18:01:44.101Z,2.87
2022-09-20T18:04:45.829Z,2.93
2022-09-20T18:07:47.503Z,2.70
2022-09-20T18:10:57.197Z,2.90
2022-09-20T18:13:59.725Z,2.80
2022-09-20T18:17:01.664Z,2.60
2022-09-20T18:20:04.148Z,2.27
2022-09-20T18:23:05.727Z,2.40
2022-09-20T18:26:24.505Z,2.47
2022-09-20T18:29:28.000Z,2.03
2022-09-20T18:32:30.288Z,1.50
2022-09-20T18:35:42.646Z,1.50
2022-09-20T18:38:47.451Z,1.37
2022-09-20T18:41:50.412Z,2.37
2022-09-20T18:44:52.024Z,2.30
2022-09-20T18:47:57.184Z,4.67
2022-09-20T18:51:04.263Z,1.83
2022-09-20T18:54:06.051Z,1.60
2022-09-20T18:57:10.103Z,1.90
2022-09-20T19:00:12.956Z,1.67
2022-09-20T19:03:31.190Z,1.33
2022-09-20T19:06:42.720Z,1.80
2022-09-20T19:09:57.353Z,1.80
2022-09-20T19:13:17.791Z,1.67
2022-09-20T19:16:38.372Z,1.83
2022-09-20T19:19:47.908Z,1.60
2022-09-20T19:23:04.292Z,2.53
2022-09-20T19:26:21.666Z,2.97
2022-09-20T19:29:25.653Z,2.87
2022-09-20T19:32:27.805Z,3.70
2022-09-20T19:35:35.625Z,3.63
2022-09-20T19:38:59.460Z,3.07
2022-09-20T19:42:25.850Z,3.30
2022-09-20T19:46:05.099Z,3.10
2022-09-20T19:49:16.729Z,2.63
2022-09-20T19:52:18.674Z,2.50
2022-09-20T19:55:20.620Z,2.20
2022-09-20T19:58:23.421Z,2.17
2022-09-20T20:01:26.077Z,1.80
2022-09-20T20:04:30.783Z,1.83
2022-09-20T20:08:03.785Z,8.73
2022-09-20T20:11:14.486Z,3.93
2022-09-20T20:14:40.076Z,2.40
2022-09-20T20:18:05.040Z,2.80
2022-09-20T20:21:29.189Z,2.60
2022-09-20T20:24:40.324Z,3.30
2022-09-20T20:27:41.924Z,3.17
2022-09-20T20:30:43.607Z,4.40
2022-09-20T20:33:45.483Z,4.37
2022-09-20T20:36:48.230Z,3.53
2022-09-20T20:39:50.369Z,5.27
2022-09-20T20:43:01.931Z,3.13
2022-09-20T20:46:05.169Z,3.63
2022-09-20T20:49:06.770Z,3.23
2022-09-20T20:52:08.883Z,3.23
2022-09-20T20:55:10.628Z,6.37
2022-09-20T20:58:12.290Z,5.10
2022-09-20T21:01:22.632Z,5.77
2022-09-20T21:04:25.251Z,8.73
2022-09-20T21:07:26.847Z,8.27
2022-09-20T21:10:28.501Z,4.93
2022-09-20T21:13:30.112Z,3.70
2022-09-20T21:16:35.548Z,3.33
2022-09-20T21:19:37.196Z,3.50
2022-09-20T21:22:38.891Z,4.07
2022-09-20T21:25:40.473Z,4.10
2022-09-20T21:28:44.877Z,3.47
2022-09-20T21:31:46.811Z,6.23
2022-09-20T21:34:48.444Z,4.23
2022-09-20T21:37:50.048Z,3.53
2022-09-20T21:41:32.259Z,3.17
2022-09-20T21:44:33.900Z,3.10
2022-09-20T21:47:35.496Z,3.10
2022-09-20T21:50:37.073Z,3.37
2022-09-20T21:53:39.478Z,3.67
2022-09-20T21:56:41.410Z,3.53
2022-09-20T21:59:43.101Z,2.93
2022-09-20T22:02:44.758Z,2.93
2022-09-20T22:05:46.629Z,2.90
2022-09-20T22:08:51.513Z,4.00
2022-09-20T22:11:53.096Z,3.93
2022-09-20T22:14:54.687Z,2.37
2022-09-20T22:17:56.408Z,2.20
2022-09-20T22:21:10.147Z,2.30
2022-09-20T22:24:16.147Z,2.10
2022-09-20T22:27:17.751Z,3.20
2022-09-20T22:30:19.366Z,1.97
2022-09-20T22:33:21.013Z,5.53
2022-09-20T22:36:25.736Z,3.30
2022-09-20T22:39:27.344Z,4.20
2022-09-20T22:42:28.952Z,6.43
2022-09-20T22:45:32.091Z,4.67
2022-09-20T22:48:34.864Z,4.30
2022-09-20T22:51:37.433Z,1.80
2022-09-20T22:54:46.540Z,1.60
2022-09-20T22:57:52.400Z,3.07
2022-09-20T23:01:06.919Z,3.20
2022-09-20T23:04:12.000Z,3.10
2022-09-20T23:07:13.583Z,2.90
2022-09-20T23:10:15.730Z,3.53
2022-09-20T23:13:17.427Z,3.20
2022-09-20T23:16:21.541Z,2.60
2022-09-20T23:19:23.255Z,2.40
2022-09-20T23:22:24.851Z,2.20
2022-09-20T23:25:26.420Z,2.60
2022-09-20T23:28:28.035Z,2.40
2022-09-20T23:31:31.726Z,2.80
2022-09-20T23:34:33.396Z,2.90
2022-09-20T23:37:35.002Z,2.10
2022-09-20T23:40:36.623Z,1.90
2022-09-20T23:43:38.783Z,1.67
2022-09-20T23:46:40.432Z,2.10
2022-09-20T23:49:42.043Z,1.90
2022-09-20T23:52:43.664Z,1.40
2022-09-20T23:55:45.336Z,1.70
2022-09-20T23:58:48.534Z,1.87
